sensor_id;sensor_type;location;lat;lon;timestamp;pressure;altitude;pressure_sealevel;temperature;humidity
596;BME280;19946;49.306;11.350;2024-03-22T10:02:02;96628.53;;;12.63;100.00
596;BME280;19946;49.306;11.350;2024-03-22T10:21:28;96600.13;;;13.82;100.00
596;BME280;19946;49.306;11.350;2024-03-22T10:24:29;96624.66;;;14.42;100.00
596;BME280;19946;49.306;11.350;2024-03-22T10:27:30;96580.56;;;14.13;100.00
596;BME280;19946;49.306;11.350;2024-03-22T10:30:30;96622.22;;;14.58;100.00
596;BME280;19946;49.306;11.350;2024-03-22T10:33:34;96549.16;;;14.33;100.00
596;BME280;19946;49.306;11.350;2024-03-22T10:36:35;96600.72;;;14.82;100.00
596;BME280;19946;49.306;11.350;2024-03-22T10:39:36;96607.59;;;14.66;100.00
596;BME280;19946;49.306;11.350;2024-03-22T10:42:40;96598.88;;;14.75;100.00
596;BME280;19946;49.306;11.350;2024-03-22T10:45:41;96599.09;;;15.07;100.00
596;BME280;19946;49.306;11.350;2024-03-22T10:48:42;96599.56;;;14.59;100.00
596;BME280;19946;49.306;11.350;2024-03-22T10:51:46;96600.31;;;14.69;98.80
596;BME280;19946;49.306;11.350;2024-03-22T10:54:48;96592.84;;;14.74;91.82
596;BME280;19946;49.306;11.350;2024-03-22T10:57:48;96596.13;;;15.02;86.09
596;BME280;19946;49.306;11.350;2024-03-22T11:00:53;96545.47;;;14.79;81.41
596;BME280;19946;49.306;11.350;2024-03-22T11:04:04;96569.38;;;14.74;100.00
596;BME280;19946;49.306;11.350;2024-03-22T11:20:53;96546.44;;;14.16;100.00
596;BME280;19946;49.306;11.350;2024-03-22T11:23:54;96530.56;;;14.45;86.07
596;BME280;19946;49.306;11.350;2024-03-22T11:40:02;96469.72;;;14.54;96.02
596;BME280;19946;49.306;11.350;2024-03-22T11:43:05;96498.38;;;15.14;75.19
596;BME280;19946;49.306;11.350;2024-03-22T11:46:06;96437.75;;;14.70;73.63
596;BME280;19946;49.306;11.350;2024-03-22T11:49:06;96502.31;;;15.18;68.23
596;BME280;19946;49.306;11.350;2024-03-22T11:52:08;96456.06;;;15.37;70.48
596;BME280;19946;49.306;11.350;2024-03-22T11:55:11;96499.91;;;15.25;62.95
596;BME280;19946;49.306;11.350;2024-03-22T11:58:11;96452.59;;;15.12;70.69
596;BME280;19946;49.306;11.350;2024-03-22T12:04:27;96442.16;;;14.78;66.10
596;BME280;19946;49.306;11.350;2024-03-22T12:07:34;96455.75;;;15.48;67.55
596;BME280;19946;49.306;11.350;2024-03-22T12:17:07;96445.50;;;15.46;63.22
596;BME280;19946;49.306;11.350;2024-03-22T12:23:27;96411.09;;;15.51;67.98
596;BME280;19946;49.306;11.350;2024-03-22T12:26:28;96419.13;;;15.65;68.66
596;BME280;19946;49.306;11.350;2024-03-22T12:29:32;96416.03;;;15.86;61.04
596;BME280;19946;49.306;11.350;2024-03-22T12:32:32;96418.34;;;15.97;60.33
596;BME280;19946;49.306;11.350;2024-03-22T12:35:32;96418.94;;;16.24;64.05
596;BME280;19946;49.306;11.350;2024-03-22T12:38:34;96360.06;;;15.81;61.92
596;BME280;19946;49.306;11.350;2024-03-22T12:48:08;96371.31;;;15.81;56.82
596;BME280;19946;49.306;11.350;2024-03-22T12:54:25;96334.44;;;15.84;52.48
596;BME280;19946;49.306;11.350;2024-03-22T13:00:42;96392.50;;;16.27;47.79
596;BME280;19946;49.306;11.350;2024-03-22T13:10:16;96365.88;;;16.31;49.52
596;BME280;19946;49.306;11.350;2024-03-22T13:13:17;96342.97;;;16.41;47.23
596;BME280;19946;49.306;11.350;2024-03-22T13:16:17;96334.00;;;16.83;49.47
596;BME280;19946;49.306;11.350;2024-03-22T13:19:18;96337.09;;;16.87;44.93
596;BME280;19946;49.306;11.350;2024-03-22T13:22:18;96344.81;;;16.80;46.55
596;BME280;19946;49.306;11.350;2024-03-22T13:25:19;96321.72;;;16.44;47.44
596;BME280;19946;49.306;11.350;2024-03-22T13:28:19;96304.91;;;16.00;45.35
596;BME280;19946;49.306;11.350;2024-03-22T13:31:22;96314.19;;;16.50;49.00
596;BME280;19946;49.306;11.350;2024-03-22T13:34:22;96262.03;;;16.25;46.21
596;BME280;19946;49.306;11.350;2024-03-22T13:37:23;96262.41;;;16.06;48.62
596;BME280;19946;49.306;11.350;2024-03-22T13:40:23;96299.50;;;16.49;44.22
596;BME280;19946;49.306;11.350;2024-03-22T13:43:25;96232.75;;;15.99;43.96
596;BME280;19946;49.306;11.350;2024-03-22T13:46:25;96256.13;;;15.84;46.25
596;BME280;19946;49.306;11.350;2024-03-22T13:49:26;96264.28;;;15.81;43.84
596;BME280;19946;49.306;11.350;2024-03-22T13:52:26;96263.63;;;15.87;46.13
596;BME280;19946;49.306;11.350;2024-03-22T13:55:26;96282.00;;;16.02;47.36
596;BME280;19946;49.306;11.350;2024-03-22T13:58:27;96283.19;;;15.91;48.10
596;BME280;19946;49.306;11.350;2024-03-22T14:01:27;96275.00;;;16.11;48.13
596;BME280;19946;49.306;11.350;2024-03-22T14:04:27;96279.28;;;16.42;47.76
596;BME280;19946;49.306;11.350;2024-03-22T14:07:29;96284.25;;;16.60;46.63
596;BME280;19946;49.306;11.350;2024-03-22T14:10:32;96224.63;;;16.56;47.75
596;BME280;19946;49.306;11.350;2024-03-22T14:13:32;96251.91;;;17.15;50.32
596;BME280;19946;49.306;11.350;2024-03-22T14:16:33;96224.34;;;16.82;48.32
596;BME280;19946;49.306;11.350;2024-03-22T14:19:34;96241.59;;;16.60;47.19
596;BME280;19946;49.306;11.350;2024-03-22T14:22:35;96230.88;;;16.86;45.69
596;BME280;19946;49.306;11.350;2024-03-22T14:25:35;96226.78;;;16.83;47.60
596;BME280;19946;49.306;11.350;2024-03-22T14:28:35;96250.84;;;17.01;44.93
596;BME280;19946;49.306;11.350;2024-03-22T14:31:37;96212.38;;;16.64;49.65
596;BME280;19946;49.306;11.350;2024-03-22T14:34:38;96236.44;;;16.83;48.00
596;BME280;19946;49.306;11.350;2024-03-22T14:37:38;96229.06;;;16.86;49.73
596;BME280;19946;49.306;11.350;2024-03-22T14:40:38;96226.59;;;16.62;48.28
596;BME280;19946;49.306;11.350;2024-03-22T14:43:39;96230.13;;;16.38;49.19
596;BME280;19946;49.306;11.350;2024-03-22T14:46:39;96200.44;;;16.31;51.59
596;BME280;19946;49.306;11.350;2024-03-22T14:49:39;96196.56;;;16.50;49.38
596;BME280;19946;49.306;11.350;2024-03-22T14:52:40;96211.50;;;16.72;53.13
596;BME280;19946;49.306;11.350;2024-03-22T14:55:40;96172.47;;;16.39;49.31
596;BME280;19946;49.306;11.350;2024-03-22T14:58:40;96167.16;;;16.25;53.26
596;BME280;19946;49.306;11.350;2024-03-22T15:01:42;96151.66;;;16.46;51.27
596;BME280;19946;49.306;11.350;2024-03-22T15:04:43;96175.94;;;16.63;51.26
596;BME280;19946;49.306;11.350;2024-03-22T15:07:43;96170.56;;;16.87;51.47
596;BME280;19946;49.306;11.350;2024-03-22T15:10:44;96199.50;;;16.86;52.24
596;BME280;19946;49.306;11.350;2024-03-22T15:13:44;96172.97;;;16.66;54.98
596;BME280;19946;49.306;11.350;2024-03-22T15:16:44;96188.91;;;16.79;54.07
596;BME280;19946;49.306;11.350;2024-03-22T15:19:45;96180.59;;;16.75;51.67
596;BME280;19946;49.306;11.350;2024-03-22T15:22:45;96153.03;;;16.11;52.02
596;BME280;19946;49.306;11.350;2024-03-22T15:25:46;96180.56;;;16.53;51.37
596;BME280;19946;49.306;11.350;2024-03-22T15:28:47;96162.97;;;16.69;54.29
596;BME280;19946;49.306;11.350;2024-03-22T15:31:48;96172.25;;;16.49;52.57
596;BME280;19946;49.306;11.350;2024-03-22T15:34:49;96138.75;;;15.91;54.11
596;BME280;19946;49.306;11.350;2024-03-22T15:37:49;96174.59;;;16.05;56.23
596;BME280;19946;49.306;11.350;2024-03-22T15:40:50;96168.50;;;16.13;60.48
596;BME280;19946;49.306;11.350;2024-03-22T15:43:51;96156.41;;;15.89;54.97
596;BME280;19946;49.306;11.350;2024-03-22T15:46:52;96153.16;;;15.87;55.31
596;BME280;19946;49.306;11.350;2024-03-22T15:49:52;96158.03;;;15.82;55.33
596;BME280;19946;49.306;11.350;2024-03-22T15:52:55;96151.56;;;15.78;56.23
596;BME280;19946;49.306;11.350;2024-03-22T15:55:55;96131.84;;;15.59;55.08
596;BME280;19946;49.306;11.350;2024-03-22T15:58:55;96127.00;;;15.56;55.20
596;BME280;19946;49.306;11.350;2024-03-22T16:01:57;96134.09;;;15.70;57.88
596;BME280;19946;49.306;11.350;2024-03-22T16:04:57;96128.63;;;15.57;56.80
596;BME280;19946;49.306;11.350;2024-03-22T16:07:58;96121.69;;;15.72;56.54
596;BME280;19946;49.306;11.350;2024-03-22T16:10:58;96141.22;;;15.84;58.86
596;BME280;19946;49.306;11.350;2024-03-22T16:13:58;96116.19;;;15.67;58.69
596;BME280;19946;49.306;11.350;2024-03-22T16:16:58;96096.19;;;15.43;58.24
596;BME280;19946;49.306;11.350;2024-03-22T16:19:59;96127.78;;;15.64;59.48
596;BME280;19946;49.306;11.350;2024-03-22T16:23:00;96143.44;;;15.48;61.22
596;BME280;19946;49.306;11.350;2024-03-22T16:26:03;96134.19;;;15.29;59.73
596;BME280;19946;49.306;11.350;2024-03-22T16:29:03;96137.00;;;15.04;61.38
596;BME280;19946;49.306;11.350;2024-03-22T16:32:03;96138.44;;;15.14;62.98
596;BME280;19946;49.306;11.350;2024-03-22T16:35:06;96121.19;;;15.05;66.80
596;BME280;19946;49.306;11.350;2024-03-22T16:38:06;96107.56;;;14.79;63.40
596;BME280;19946;49.306;11.350;2024-03-22T16:41:07;96106.41;;;14.81;60.87
596;BME280;19946;49.306;11.350;2024-03-22T16:44:10;96111.94;;;14.86;59.81
596;BME280;19946;49.306;11.350;2024-03-22T16:47:10;96120.56;;;14.87;61.19
596;BME280;19946;49.306;11.350;2024-03-22T16:50:11;96060.47;;;14.40;61.21
596;BME280;19946;49.306;11.350;2024-03-22T16:53:12;96110.16;;;14.63;58.28
596;BME280;19946;49.306;11.350;2024-03-22T16:56:12;96092.88;;;14.45;64.07
596;BME280;19946;49.306;11.350;2024-03-22T16:59:13;96093.88;;;14.44;61.57
596;BME280;19946;49.306;11.350;2024-03-22T17:02:14;96087.97;;;14.34;60.41
596;BME280;19946;49.306;11.350;2024-03-22T17:05:14;96105.41;;;14.42;61.94
596;BME280;19946;49.306;11.350;2024-03-22T17:08:14;96047.22;;;13.93;65.54
596;BME280;19946;49.306;11.350;2024-03-22T17:11:15;96043.66;;;13.94;61.97
596;BME280;19946;49.306;11.350;2024-03-22T17:14:16;96097.06;;;14.22;62.11
596;BME280;19946;49.306;11.350;2024-03-22T17:17:16;96073.94;;;14.03;61.88
596;BME280;19946;49.306;11.350;2024-03-22T17:20:18;96110.91;;;14.22;69.77
596;BME280;19946;49.306;11.350;2024-03-22T17:23:18;96078.75;;;13.81;77.61
596;BME280;19946;49.306;11.350;2024-03-22T17:26:18;96094.75;;;13.95;66.90
596;BME280;19946;49.306;11.350;2024-03-22T17:29:19;96075.16;;;13.74;68.29
596;BME280;19946;49.306;11.350;2024-03-22T17:32:20;96064.84;;;13.48;67.24
596;BME280;19946;49.306;11.350;2024-03-22T17:35:21;96088.91;;;13.50;68.61
596;BME280;19946;49.306;11.350;2024-03-22T17:38:21;96055.00;;;13.34;68.90
596;BME280;19946;49.306;11.350;2024-03-22T17:41:21;96023.31;;;12.97;75.25
596;BME280;19946;49.306;11.350;2024-03-22T17:44:22;96063.94;;;13.32;70.37
596;BME280;19946;49.306;11.350;2024-03-22T17:47:23;96069.34;;;13.38;69.24
596;BME280;19946;49.306;11.350;2024-03-22T17:50:23;96042.78;;;13.19;68.99
596;BME280;19946;49.306;11.350;2024-03-22T17:53:23;96071.84;;;13.22;79.51
596;BME280;19946;49.306;11.350;2024-03-22T17:56:24;96080.63;;;13.21;89.30
596;BME280;19946;49.306;11.350;2024-03-22T17:59:24;96054.00;;;13.01;100.00
596;BME280;19946;49.306;11.350;2024-03-22T18:02:25;96075.44;;;12.95;93.93
596;BME280;19946;49.306;11.350;2024-03-22T18:05:25;96004.25;;;12.36;91.11
596;BME280;19946;49.306;11.350;2024-03-22T18:08:27;96062.19;;;12.80;94.09
596;BME280;19946;49.306;11.350;2024-03-22T18:11:27;96077.00;;;12.88;100.00
596;BME280;19946;49.306;11.350;2024-03-22T18:21:02;96050.72;;;12.91;86.86
596;BME280;19946;49.306;11.350;2024-03-22T18:24:02;96019.94;;;12.78;90.49
596;BME280;19946;49.306;11.350;2024-03-22T18:27:05;96075.16;;;13.06;87.44
596;BME280;19946;49.306;11.350;2024-03-22T18:30:06;96035.13;;;12.91;92.02
596;BME280;19946;49.306;11.350;2024-03-22T18:33:08;96054.94;;;12.92;92.58
596;BME280;19946;49.306;11.350;2024-03-22T18:36:08;96065.38;;;13.00;100.00
596;BME280;19946;49.306;11.350;2024-03-22T18:39:08;96061.88;;;12.84;100.00
596;BME280;19946;49.306;11.350;2024-03-22T18:42:09;96044.28;;;12.52;100.00
596;BME280;19946;49.306;11.350;2024-03-22T18:45:09;96050.00;;;12.37;100.00
596;BME280;19946;49.306;11.350;2024-03-22T18:48:12;96035.06;;;12.31;95.65
596;BME280;19946;49.306;11.350;2024-03-22T18:51:12;96068.19;;;12.37;100.00
596;BME280;19946;49.306;11.350;2024-03-22T18:54:14;96028.22;;;12.13;100.00
596;BME280;19946;49.306;11.350;2024-03-22T18:57:15;96060.41;;;12.02;100.00
596;BME280;19946;49.306;11.350;2024-03-22T19:00:15;96041.06;;;11.79;100.00
596;BME280;19946;49.306;11.350;2024-03-22T19:03:15;96044.31;;;11.81;100.00
596;BME280;19946;49.306;11.350;2024-03-22T19:06:16;96062.34;;;12.00;100.00
596;BME280;19946;49.306;11.350;2024-03-22T19:09:16;96070.50;;;12.05;100.00
596;BME280;19946;49.306;11.350;2024-03-22T19:12:17;96054.56;;;12.00;100.00
596;BME280;19946;49.306;11.350;2024-03-22T19:15:17;96058.28;;;11.97;100.00
596;BME280;19946;49.306;11.350;2024-03-22T19:18:17;96025.66;;;11.77;100.00
596;BME280;19946;49.306;11.350;2024-03-22T19:27:52;95964.81;;;12.15;100.00
596;BME280;19946;49.306;11.350;2024-03-22T19:30:52;95977.94;;;11.60;100.00
596;BME280;19946;49.306;11.350;2024-03-22T19:33:53;95998.34;;;11.55;100.00
596;BME280;19946;49.306;11.350;2024-03-22T19:36:54;95984.22;;;11.40;100.00
596;BME280;19946;49.306;11.350;2024-03-22T19:39:54;95977.25;;;11.23;100.00
596;BME280;19946;49.306;11.350;2024-03-22T19:42:55;95981.66;;;11.13;100.00
596;BME280;19946;49.306;11.350;2024-03-22T19:45:55;96005.09;;;11.39;100.00
596;BME280;19946;49.306;11.350;2024-03-22T19:49:00;95977.53;;;11.20;100.00
596;BME280;19946;49.306;11.350;2024-03-22T19:52:02;95954.31;;;11.01;100.00
596;BME280;19946;49.306;11.350;2024-03-22T19:55:04;95998.25;;;11.20;100.00
596;BME280;19946;49.306;11.350;2024-03-22T19:58:04;96010.16;;;11.40;100.00
596;BME280;19946;49.306;11.350;2024-03-22T20:01:05;95990.75;;;11.44;100.00
596;BME280;19946;49.306;11.350;2024-03-22T20:04:05;95953.31;;;11.29;100.00
596;BME280;19946;49.306;11.350;2024-03-22T20:07:05;95965.13;;;11.41;100.00
596;BME280;19946;49.306;11.350;2024-03-22T20:10:09;95949.34;;;11.34;100.00
596;BME280;19946;49.306;11.350;2024-03-22T20:13:10;95918.25;;;11.34;100.00
596;BME280;19946;49.306;11.350;2024-03-22T20:16:10;95950.84;;;11.55;100.00
596;BME280;19946;49.306;11.350;2024-03-22T20:19:11;95964.69;;;11.63;100.00
596;BME280;19946;49.306;11.350;2024-03-22T20:22:11;95918.22;;;11.52;100.00
596;BME280;19946;49.306;11.350;2024-03-22T20:25:13;95958.94;;;11.87;100.00
596;BME280;19946;49.306;11.350;2024-03-22T20:28:13;95968.25;;;11.62;100.00
596;BME280;19946;49.306;11.350;2024-03-22T20:31:14;95963.94;;;11.53;100.00
596;BME280;19946;49.306;11.350;2024-03-22T20:34:14;95979.06;;;11.58;100.00
